Time;durP1;ratioP1;P1;durP2;ratioP2;P2;SDS_P1;SDS_P2;PMS_P1;PMS_P2;Temp;Humidity;BMP_temperature;BMP_pressure;BME280_temperature;BME280_humidity;BME280_pressure;Samples;Min_cycle;Max_cycle;Signal;HPM_P1;HPM_P2
2024/01/08 00:00:42;;;;;;;3.13;1.40;;;;;;;20.71;35.46;102891.41;5010394;28;96942;-76
2024/01/08 00:03:07;;;;;;;2.90;1.95;;;;;;;20.70;35.37;102898.50;4985436;28;97726;-75
2024/01/08 00:05:37;;;;;;;2.03;1.00;;;;;;;20.70;35.46;102892.31;4987662;28;97705;-75
2024/01/08 00:08:03;;;;;;;3.40;1.50;;;;;;;20.70;35.41;102889.66;5007430;28;96808;-75
2024/01/08 00:10:28;;;;;;;2.20;1.20;;;;;;;20.70;35.24;102887.00;4986853;28;96821;-78
2024/01/08 00:12:53;;;;;;;2.47;1.42;;;;;;;20.70;35.21;102892.31;4985972;28;98487;-78
2024/01/08 00:15:19;;;;;;;2.45;1.40;;;;;;;20.70;35.03;102890.53;5019471;28;126693;-78
2024/01/08 00:17:44;;;;;;;2.47;1.63;;;;;;;20.69;35.21;102890.53;4985904;28;113966;-78
2024/01/08 00:20:10;;;;;;;3.08;1.52;;;;;;;20.69;35.38;102903.78;4989165;28;113201;-78
2024/01/08 00:22:35;;;;;;;2.05;1.13;;;;;;;20.69;35.19;102903.78;5014002;27;99833;-75
2024/01/08 00:25:01;;;;;;;2.70;1.52;;;;;;;20.68;35.30;102894.97;4989430;28;97320;-75
2024/01/08 00:27:26;;;;;;;2.97;1.90;;;;;;;20.69;35.30;102911.75;4987489;28;110809;-75
2024/01/08 00:29:51;;;;;;;3.30;2.03;;;;;;;20.69;35.04;102901.13;4991251;28;97477;-76
2024/01/08 00:32:17;;;;;;;3.60;1.42;;;;;;;20.69;35.08;102893.19;5001310;28;97320;-75
2024/01/08 00:34:43;;;;;;;3.60;1.83;;;;;;;20.68;35.11;102894.97;4991820;28;99387;-75
2024/01/08 00:37:08;;;;;;;3.08;1.75;;;;;;;20.67;35.03;102893.19;4981740;28;112560;-75
2024/01/08 00:39:33;;;;;;;3.13;1.55;;;;;;;20.67;35.26;102887.88;4984528;28;111805;-75
2024/01/08 00:41:59;;;;;;;2.83;1.60;;;;;;;20.68;34.95;102894.09;4964577;28;124713;-75
2024/01/08 00:44:24;;;;;;;3.95;1.42;;;;;;;20.68;35.00;102888.78;5015028;28;96761;-75
2024/01/08 00:46:49;;;;;;;3.13;1.50;;;;;;;20.66;34.99;102896.72;4966966;28;103206;-75
2024/01/08 00:49:15;;;;;;;2.75;1.58;;;;;;;20.67;34.91;102893.19;4976147;28;96910;-75
2024/01/08 00:51:40;;;;;;;2.83;1.52;;;;;;;20.66;34.86;102887.88;4986719;28;103909;-75
2024/01/08 00:54:05;;;;;;;2.40;1.38;;;;;;;20.66;34.85;102885.22;4986795;28;96820;-75
2024/01/08 00:56:31;;;;;;;2.70;1.40;;;;;;;20.65;34.94;102884.34;4987001;28;110139;-75
2024/01/08 00:58:56;;;;;;;2.97;1.63;;;;;;;20.65;34.86;102889.63;5002581;28;96867;-75
2024/01/08 01:01:22;;;;;;;2.63;1.33;;;;;;;20.66;34.80;102895.81;4988628;28;109275;-75
2024/01/08 01:03:47;;;;;;;2.78;1.35;;;;;;;20.65;34.92;102891.41;4975295;28;126543;-75
2024/01/08 01:06:12;;;;;;;2.78;1.48;;;;;;;20.65;34.99;102899.38;4984471;28;109766;-75
2024/01/08 01:08:38;;;;;;;2.97;1.60;;;;;;;20.64;34.73;102901.16;4978762;28;97303;-75
2024/01/08 01:11:03;;;;;;;2.90;1.48;;;;;;;20.64;34.94;102889.63;4986156;28;97336;-76
2024/01/08 01:13:29;;;;;;;2.30;1.50;;;;;;;20.64;34.85;102890.53;4982330;28;97699;-76
2024/01/08 01:15:54;;;;;;;2.55;1.98;;;;;;;20.65;35.01;102902.91;4975467;28;96886;-75
2024/01/08 01:18:19;;;;;;;2.83;1.70;;;;;;;20.63;34.75;102906.44;4978320;28;111681;-75
2024/01/08 01:20:45;;;;;;;2.30;1.65;;;;;;;20.63;34.94;102904.66;4987464;28;127707;-76
2024/01/08 01:23:10;;;;;;;3.13;1.65;;;;;;;20.63;34.92;102909.09;4979956;28;124715;-75
2024/01/08 01:25:36;;;;;;;2.67;1.45;;;;;;;20.63;34.89;102919.69;4985261;28;96762;-75
2024/01/08 01:28:01;;;;;;;2.65;1.27;;;;;;;20.63;34.77;102911.75;4981247;28;114019;-75
2024/01/08 01:30:26;;;;;;;2.30;1.70;;;;;;;20.63;34.78;102919.69;4991711;28;111756;-75
2024/01/08 01:32:52;;;;;;;2.42;1.27;;;;;;;20.62;35.07;102917.91;4987548;28;97876;-75
2024/01/08 01:35:17;;;;;;;3.88;1.75;;;;;;;20.62;34.66;102916.13;5016636;27;97047;-75
2024/01/08 01:37:44;;;;;;;2.75;1.85;;;;;;;20.62;34.71;102928.53;4980546;28;97140;-75
2024/01/08 01:40:10;;;;;;;3.08;2.28;;;;;;;20.62;34.96;102929.41;4988967;28;97632;-75
2024/01/08 01:42:35;;;;;;;2.78;2.28;;;;;;;20.63;34.64;102925.88;4991348;28;96873;-75
2024/01/08 01:45:01;;;;;;;2.85;1.65;;;;;;;20.62;35.07;102921.44;4988183;28;96902;-75
2024/01/08 01:47:26;;;;;;;2.88;1.73;;;;;;;20.61;34.83;102919.69;4999633;28;111573;-75
2024/01/08 01:49:53;;;;;;;2.67;1.40;;;;;;;20.61;34.65;102922.34;4986188;28;97667;-75
2024/01/08 01:52:20;;;;;;;2.83;1.73;;;;;;;20.61;34.86;102919.69;4986475;28;99250;-75
2024/01/08 01:54:48;;;;;;;2.80;2.25;;;;;;;20.61;34.95;102919.69;4986836;28;97141;-75
2024/01/08 01:57:15;;;;;;;2.88;2.03;;;;;;;20.61;34.62;102922.34;4987272;28;96811;-75
2024/01/08 01:59:40;;;;;;;3.30;1.55;;;;;;;20.61;34.74;102922.34;5005007;28;99573;-75
2024/01/08 02:02:07;;;;;;;2.28;1.40;;;;;;;20.60;34.62;102925.81;4989611;28;100326;-75
2024/01/08 02:04:32;;;;;;;2.75;1.70;;;;;;;20.60;34.86;102923.16;5007674;27;96929;-75
2024/01/08 02:07:00;;;;;;;2.28;1.23;;;;;;;20.61;34.85;102922.34;4984014;28;97387;-75
2024/01/08 02:09:26;;;;;;;2.20;1.23;;;;;;;20.60;34.95;102931.13;5013940;27;97499;-75
2024/01/08 02:11:52;;;;;;;2.28;1.73;;;;;;;20.59;34.77;102926.72;4988905;28;99767;-75
2024/01/08 02:14:17;;;;;;;3.65;1.70;;;;;;;20.60;34.87;102924.94;4979834;28;97231;-75
2024/01/08 02:16:43;;;;;;;2.55;1.60;;;;;;;20.59;34.60;102923.16;5006963;28;96845;-75
2024/01/08 02:19:09;;;;;;;2.95;2.08;;;;;;;20.59;34.75;102923.16;4989393;28;98035;-75
2024/01/08 02:21:34;;;;;;;2.88;1.80;;;;;;;20.59;34.81;102929.38;4986542;28;98337;-75
2024/01/08 02:24:00;;;;;;;2.95;1.95;;;;;;;20.59;34.60;102933.75;4992551;28;96725;-75
2024/01/08 02:26:26;;;;;;;2.90;1.63;;;;;;;20.59;34.54;102928.47;4985778;28;97116;-75
2024/01/08 02:28:52;;;;;;;2.75;1.35;;;;;;;20.58;34.86;102934.66;4991889;28;97542;-75
2024/01/08 02:31:19;;;;;;;2.28;1.20;;;;;;;20.58;34.73;102929.34;4980529;28;97200;-75
2024/01/08 02:33:45;;;;;;;2.70;1.27;;;;;;;20.58;34.51;102932.00;4973649;28;96921;-75
2024/01/08 02:36:10;;;;;;;2.95;1.23;;;;;;;20.58;34.81;102930.25;4992696;28;96894;-75
2024/01/08 02:38:35;;;;;;;2.22;1.15;;;;;;;20.57;34.78;102933.78;4977325;28;125826;-75
2024/01/08 02:41:01;;;;;;;3.25;1.55;;;;;;;20.57;34.89;102930.22;4991405;28;129520;-75
2024/01/08 02:43:27;;;;;;;2.13;1.38;;;;;;;20.57;34.68;102932.88;4986328;28;96833;-75
2024/01/08 02:45:52;;;;;;;2.05;1.15;;;;;;;20.57;34.84;102936.44;4989488;28;98272;-75
2024/01/08 02:48:17;;;;;;;2.92;1.88;;;;;;;20.57;34.84;102932.88;4987675;28;126914;-75
2024/01/08 02:50:43;;;;;;;2.53;1.95;;;;;;;20.56;34.58;102928.47;4989370;28;97278;-75
2024/01/08 02:53:08;;;;;;;2.33;1.65;;;;;;;20.56;34.84;102929.34;4988218;28;96976;-75
2024/01/08 02:55:34;;;;;;;2.25;1.23;;;;;;;20.55;34.54;102930.22;5007293;28;96980;-75
2024/01/08 02:58:02;;;;;;;1.98;1.60;;;;;;;20.56;34.59;102936.44;4991727;28;127082;-75
2024/01/08 03:00:28;;;;;;;2.47;1.90;;;;;;;20.55;34.55;102935.50;4973558;28;97282;-75
2024/01/08 03:02:53;;;;;;;2.45;1.25;;;;;;;20.54;34.65;102933.75;4973494;28;112617;-75
2024/01/08 03:05:18;;;;;;;2.13;1.38;;;;;;;20.54;34.52;102937.28;4972903;28;96997;-75
2024/01/08 03:07:44;;;;;;;2.60;1.80;;;;;;;20.54;34.55;102937.28;4972287;28;117848;-75
2024/01/08 03:10:09;;;;;;;2.03;1.20;;;;;;;20.54;34.86;102933.75;4972607;28;126693;-75
2024/01/08 03:12:34;;;;;;;2.15;1.40;;;;;;;20.54;34.41;102932.00;4973199;28;106265;-77
2024/01/08 03:15:00;;;;;;;3.10;1.30;;;;;;;20.54;34.55;102942.59;4985075;28;97125;-75
2024/01/08 03:17:25;;;;;;;2.25;1.23;;;;;;;20.53;34.63;102937.28;4977993;28;112565;-75
2024/01/08 03:19:51;;;;;;;2.22;1.52;;;;;;;20.53;34.76;102940.84;4973302;28;96646;-75
2024/01/08 03:22:16;;;;;;;2.17;1.25;;;;;;;20.53;34.44;102935.53;4988721;28;106919;-74
2024/01/08 03:24:41;;;;;;;2.15;1.23;;;;;;;20.53;34.71;102942.59;4988775;28;110542;-75
2024/01/08 03:27:07;;;;;;;1.95;1.23;;;;;;;20.52;34.77;102944.34;4983653;28;119158;-75
2024/01/08 03:29:33;;;;;;;2.35;1.20;;;;;;;20.52;34.36;102946.13;5000200;28;100483;-75
2024/01/08 03:31:59;;;;;;;1.95;1.23;;;;;;;20.52;34.36;102946.13;4980723;28;96769;-75
2024/01/08 03:34:24;;;;;;;1.83;1.02;;;;;;;20.52;34.26;102947.00;5010427;27;97151;-75
2024/01/08 03:36:50;;;;;;;2.00;1.23;;;;;;;20.52;34.63;102940.84;4988580;28;124674;-75
2024/01/08 03:39:17;;;;;;;2.17;1.20;;;;;;;20.52;34.44;102940.84;4994870;28;99441;-75
2024/01/08 03:41:43;;;;;;;2.38;1.23;;;;;;;20.51;34.65;102939.91;4978144;28;96896;-75
2024/01/08 03:44:09;;;;;;;1.95;1.40;;;;;;;20.51;34.45;102945.22;5003656;28;96880;-75
2024/01/08 03:46:38;;;;;;;2.85;1.30;;;;;;;20.51;34.49;102937.28;5002011;28;99850;-75
2024/01/08 03:49:04;;;;;;;;;;;;;;;20.45;34.53;102942.56;4979591;28;97550;-75
2024/01/08 03:51:32;;;;;;;2.33;1.53;;;;;;;20.47;34.75;102934.63;4986994;28;97241;-75
2024/01/08 03:53:58;;;;;;;1.98;1.23;;;;;;;20.48;34.57;102939.94;4988385;28;97031;-75
2024/01/08 03:56:23;;;;;;;1.90;1.02;;;;;;;20.49;34.51;102938.16;4987041;28;126195;-75
2024/01/08 03:58:48;;;;;;;1.92;1.55;;;;;;;20.49;34.64;102940.81;4983347;28;115313;-75
2024/01/08 04:01:14;;;;;;;1.90;1.35;;;;;;;20.48;34.51;102929.31;4991969;28;96928;-75
2024/01/08 04:03:40;;;;;;;1.80;1.13;;;;;;;20.48;34.35;102933.72;5018088;28;97764;-75
2024/01/08 04:06:05;;;;;;;2.20;1.25;;;;;;;20.48;34.73;102933.72;4982830;28;99909;-75
2024/01/08 04:08:31;;;;;;;1.80;1.02;;;;;;;20.48;34.35;102933.72;4981144;28;97686;-75
2024/01/08 04:10:56;;;;;;;2.00;1.13;;;;;;;20.48;34.63;102941.66;4988110;28;97041;-75
2024/01/08 04:13:21;;;;;;;2.38;1.17;;;;;;;20.48;34.33;102945.22;4981577;28;96986;-75
2024/01/08 04:15:47;;;;;;;2.35;1.23;;;;;;;20.48;34.46;102945.22;4979411;28;113579;-75
2024/01/08 04:18:13;;;;;;;1.70;1.08;;;;;;;20.48;34.29;102939.94;4977754;28;97318;-75
2024/01/08 04:20:39;;;;;;;1.70;0.90;;;;;;;20.47;34.53;102938.16;5011172;27;96897;-75
2024/01/08 04:23:04;;;;;;;2.25;1.60;;;;;;;20.48;34.52;102937.28;4983952;28;97277;-75
2024/01/08 04:25:29;;;;;;;1.80;1.10;;;;;;;20.47;34.36;102943.44;4989281;28;116801;-74
2024/01/08 04:27:55;;;;;;;2.28;1.52;;;;;;;20.47;34.52;102945.22;4982284;28;96709;-75
2024/01/08 04:30:20;;;;;;;2.13;1.50;;;;;;;20.47;34.42;102950.53;4978800;28;96782;-75
2024/01/08 04:32:45;;;;;;;2.30;1.10;;;;;;;20.46;34.14;102952.31;4986363;28;99010;-75
2024/01/08 04:35:12;;;;;;;2.10;1.10;;;;;;;20.47;34.49;102953.19;4987087;28;124193;-75
2024/01/08 04:37:38;;;;;;;1.85;1.20;;;;;;;20.47;34.59;102953.19;4975778;28;96837;-74
2024/01/08 04:40:03;;;;;;;2.00;1.42;;;;;;;20.47;34.40;102947.88;4982772;28;96984;-75
2024/01/08 04:42:29;;;;;;;1.90;1.10;;;;;;;20.46;34.59;102939.03;4975314;28;97125;-75
2024/01/08 04:44:54;;;;;;;1.70;0.85;;;;;;;20.46;34.49;102940.78;4980500;28;97983;-75
2024/01/08 04:47:19;;;;;;;2.30;1.23;;;;;;;20.46;34.67;102941.69;4977353;28;96936;-75
2024/01/08 04:49:45;;;;;;;2.47;1.67;;;;;;;20.46;34.43;102947.00;4981813;28;96773;-74
2024/01/08 04:52:11;;;;;;;1.83;1.23;;;;;;;20.46;34.61;102947.00;4986784;28;96952;-75
2024/01/08 04:54:36;;;;;;;2.85;1.42;;;;;;;20.46;34.55;102947.00;4979191;28;97066;-75
2024/01/08 04:57:02;;;;;;;2.05;1.20;;;;;;;20.46;34.25;102939.03;5012018;27;98174;-75
2024/01/08 04:59:28;;;;;;;2.65;1.00;;;;;;;20.46;34.62;102943.44;4987303;28;96663;-75
2024/01/08 05:01:53;;;;;;;2.03;1.15;;;;;;;20.45;34.15;102942.56;5011378;27;97780;-75
2024/01/08 05:04:18;;;;;;;2.50;1.80;;;;;;;20.45;34.24;102937.25;4990061;28;127211;-75
2024/01/08 05:06:44;;;;;;;3.05;1.23;;;;;;;20.45;34.33;102939.03;4987193;28;115836;-75
2024/01/08 05:09:10;;;;;;;2.40;1.10;;;;;;;20.44;34.49;102935.47;4990218;28;97029;-75
2024/01/08 05:11:35;;;;;;;2.30;0.90;;;;;;;20.44;34.22;102932.81;4981579;28;97001;-75
2024/01/08 05:14:01;;;;;;;1.52;0.77;;;;;;;20.44;34.31;102942.53;4990390;28;97956;-75
2024/01/08 05:16:26;;;;;;;2.15;1.40;;;;;;;20.45;34.41;102944.34;4991095;28;97226;-75
2024/01/08 05:18:52;;;;;;;2.03;1.17;;;;;;;20.44;34.04;102939.91;4990562;28;97218;-75
2024/01/08 05:21:17;;;;;;;3.17;1.52;;;;;;;20.44;34.55;102939.91;5001761;28;96863;-75
2024/01/08 05:23:43;;;;;;;2.38;1.55;;;;;;;20.43;34.34;102936.38;4987914;28;127264;-75
2024/01/08 05:26:08;;;;;;;2.33;1.42;;;;;;;20.44;34.16;102943.44;4982411;28;98277;-75
2024/01/08 05:28:33;;;;;;;1.85;1.15;;;;;;;20.44;34.10;102946.06;4986099;28;96808;-75
2024/01/08 05:30:59;;;;;;;2.20;1.60;;;;;;;20.43;34.27;102939.03;4984490;28;115200;-75
2024/01/08 05:33:25;;;;;;;2.25;1.60;;;;;;;20.43;34.40;102941.66;4973951;28;126787;-77
2024/01/08 05:35:51;;;;;;;2.33;1.50;;;;;;;20.43;34.07;102941.66;4985189;28;97236;-75
2024/01/08 05:38:16;;;;;;;1.50;1.00;;;;;;;20.43;34.16;102938.16;4986338;28;96690;-75
2024/01/08 05:40:42;;;;;;;2.15;1.60;;;;;;;20.42;34.29;102933.72;4997541;28;116000;-75
2024/01/08 05:43:07;;;;;;;2.83;1.10;;;;;;;20.41;34.24;102932.84;4987894;28;98424;-75
2024/01/08 05:45:32;;;;;;;1.80;1.13;;;;;;;20.41;34.01;102930.19;4994972;28;97386;-75
2024/01/08 05:47:58;;;;;;;2.15;1.23;;;;;;;20.41;34.34;102924.88;4986445;28;116988;-74
2024/01/08 05:50:27;;;;;;;2.22;1.50;;;;;;;20.41;34.25;102937.22;4987643;28;97158;-75
2024/01/08 05:52:54;;;;;;;2.30;1.30;;;;;;;20.41;34.05;102927.53;4978103;28;97994;-75
2024/01/08 05:55:20;;;;;;;1.88;0.95;;;;;;;20.41;34.36;102927.53;4987160;28;97972;-74
2024/01/08 05:57:45;;;;;;;1.90;0.95;;;;;;;20.41;34.04;102921.31;4980766;28;97133;-75
2024/01/08 06:00:11;;;;;;;1.88;0.88;;;;;;;20.40;34.46;102930.16;4982431;28;96895;-74
2024/01/08 06:02:37;;;;;;;1.50;0.80;;;;;;;20.41;34.21;102932.84;4978809;28;96828;-75
2024/01/08 06:05:02;;;;;;;1.80;1.10;;;;;;;20.39;34.02;102926.59;5004099;27;97318;-75
2024/01/08 06:07:28;;;;;;;1.67;0.95;;;;;;;20.39;34.27;102928.38;4972928;28;97129;-75
2024/01/08 06:09:53;;;;;;;2.03;0.98;;;;;;;20.40;34.13;102930.16;4970345;28;108148;-75
2024/01/08 06:12:18;;;;;;;1.95;0.95;;;;;;;20.40;34.00;102933.69;4976505;28;127068;-75
2024/01/08 06:14:44;;;;;;;2.33;0.90;;;;;;;20.40;34.00;102931.03;5003748;28;127425;-75
2024/01/08 06:17:10;;;;;;;2.10;1.33;;;;;;;20.40;34.39;102933.69;4985131;28;97032;-75
2024/01/08 06:19:36;;;;;;;2.10;1.58;;;;;;;20.40;34.15;102930.16;4982493;28;97114;-75
2024/01/08 06:22:02;;;;;;;2.20;1.70;;;;;;;20.40;33.90;102927.53;5007670;28;97222;-75
2024/01/08 06:24:27;;;;;;;1.73;0.82;;;;;;;20.39;34.24;102928.38;5007179;27;100227;-75
2024/01/08 06:26:53;;;;;;;1.65;0.95;;;;;;;20.40;34.46;102930.16;4988467;28;110197;-75
2024/01/08 06:29:18;;;;;;;1.77;1.05;;;;;;;20.39;34.12;102925.72;4981829;28;103955;-75
2024/01/08 06:31:45;;;;;;;2.33;1.13;;;;;;;20.38;34.25;102929.28;4984064;28;98920;-75
2024/01/08 06:34:10;;;;;;;1.60;1.08;;;;;;;20.38;34.24;102932.81;4981625;28;100772;-75
2024/01/08 06:36:36;;;;;;;3.08;1.00;;;;;;;20.36;34.50;102929.28;4982211;28;97465;-77
2024/01/08 06:39:01;;;;;;;2.20;1.40;;;;;;;20.27;34.51;102921.28;5020572;27;97238;-81
2024/01/08 06:41:27;;;;;;;2.03;1.13;;;;;;;20.20;34.91;102928.31;4984326;28;97849;-79
2024/01/08 06:43:52;;;;;;;2.15;1.02;;;;;;;20.14;34.69;102945.06;4986902;28;99477;-79
2024/01/08 06:46:18;;;;;;;1.70;0.88;;;;;;;20.10;34.99;102939.72;4995319;28;96732;-78
2024/01/08 06:48:44;;;;;;;1.77;1.10;;;;;;;20.06;34.90;102944.09;4990930;28;96869;-79
2024/01/08 06:51:11;;;;;;;1.90;1.10;;;;;;;20.05;35.00;102941.44;4982276;28;100471;-82
2024/01/08 06:53:37;;;;;;;2.13;1.17;;;;;;;20.02;34.79;102939.69;4986750;28;96915;-82
2024/01/08 06:56:03;;;;;;;1.85;1.15;;;;;;;20.00;34.99;102945.81;5018600;27;109777;-83
2024/01/08 06:58:28;;;;;;;1.98;1.58;;;;;;;19.97;34.70;102942.28;4969550;28;96953;-82
2024/01/08 07:00:54;;;;;;;3.40;1.13;;;;;;;19.97;34.96;102944.06;5006615;28;98655;-83
2024/01/08 07:03:19;;;;;;;2.13;1.30;;;;;;;19.95;34.96;102946.69;4987248;28;126950;-83
2024/01/08 07:05:46;;;;;;;1.90;0.93;;;;;;;19.95;35.28;102953.75;4974163;28;116979;-83
2024/01/08 07:08:12;;;;;;;2.50;1.20;;;;;;;19.94;34.99;102952.84;4986151;28;98344;-83
2024/01/08 07:10:37;;;;;;;2.17;1.52;;;;;;;19.94;34.70;102954.63;4985642;28;97745;-83
2024/01/08 07:13:02;;;;;;;1.83;1.27;;;;;;;19.92;35.04;102959.91;4986135;28;103859;-83
2024/01/08 07:15:35;;;;;;;1.90;1.13;;;;;;;19.91;35.00;102955.50;4990286;28;97349;-82
2024/01/08 07:18:01;;;;;;;2.58;0.88;;;;;;;19.91;34.84;102959.88;4987235;28;97197;-82
2024/01/08 07:20:26;;;;;;;5.00;1.20;;;;;;;19.90;35.12;102960.78;4971212;28;100889;-82
2024/01/08 07:22:52;;;;;;;1.90;1.13;;;;;;;19.89;34.94;102967.84;4985486;28;98636;-80
2024/01/08 07:25:17;;;;;;;1.55;0.82;;;;;;;19.89;35.14;102962.56;4997977;28;117683;-81
2024/01/08 07:27:42;;;;;;;2.30;1.15;;;;;;;19.88;35.18;102968.72;4999521;28;98860;-80
2024/01/08 07:30:09;;;;;;;2.88;1.60;;;;;;;19.89;34.92;102967.84;4985373;28;128108;-80
2024/01/08 07:32:35;;;;;;;2.20;1.40;;;;;;;19.88;34.96;102962.53;4986010;28;96954;-80
2024/01/08 07:35:02;;;;;;;2.67;1.65;;;;;;;19.88;35.08;102960.75;4989817;28;113807;-80
2024/01/08 07:37:27;;;;;;;1.80;1.02;;;;;;;19.88;35.21;102968.72;4986529;28;97990;-80
2024/01/08 07:39:52;;;;;;;1.70;1.05;;;;;;;19.87;34.96;102966.91;4985152;28;128444;-80
2024/01/08 07:42:18;;;;;;;1.90;1.40;;;;;;;19.86;35.14;102962.53;4978554;28;103109;-80
2024/01/08 07:44:43;;;;;;;1.67;1.17;;;;;;;19.86;35.13;102970.47;4973990;28;96866;-80
2024/01/08 07:47:09;;;;;;;2.00;1.40;;;;;;;19.86;35.33;102974.88;5005991;27;98716;-80
2024/01/08 07:49:34;;;;;;;2.38;1.63;;;;;;;19.85;35.26;102968.69;4976577;28;98597;-80
2024/01/08 07:51:59;;;;;;;2.33;1.45;;;;;;;19.86;35.28;102975.75;4961941;28;98812;-79
2024/01/08 07:54:25;;;;;;;1.90;1.48;;;;;;;19.86;35.02;102982.81;4985131;28;116651;-80
2024/01/08 07:56:50;;;;;;;3.05;1.70;;;;;;;19.85;35.26;102973.09;5002436;28;96971;-80
2024/01/08 07:59:15;;;;;;;1.70;0.93;;;;;;;19.85;35.39;102988.97;4987510;28;98051;-80
2024/01/08 08:01:41;;;;;;;5.18;1.83;;;;;;;19.85;35.06;102981.91;4984314;28;125564;-80
2024/01/08 08:04:06;;;;;;;2.63;1.20;;;;;;;19.85;35.15;102981.03;4972621;28;117336;-80
2024/01/08 08:06:31;;;;;;;2.15;1.15;;;;;;;19.85;35.39;102973.09;4975345;28;109955;-79
2024/01/08 08:08:57;;;;;;;3.15;0.98;;;;;;;19.83;35.24;102981.03;4982814;28;97543;-80
2024/01/08 08:11:22;;;;;;;2.22;1.70;;;;;;;19.84;35.29;102981.91;4982038;28;96814;-80
2024/01/08 08:13:48;;;;;;;1.63;0.82;;;;;;;19.83;35.29;102986.31;4968893;28;117757;-80
2024/01/08 08:16:13;;;;;;;1.75;1.02;;;;;;;19.84;35.44;102990.75;5002735;28;97981;-80
2024/01/08 08:18:39;;;;;;;2.33;1.33;;;;;;;19.83;35.21;102990.75;4990434;28;97600;-80
2024/01/08 08:21:04;;;;;;;2.58;1.50;;;;;;;19.82;35.21;102984.56;4988855;28;97478;-82
2024/01/08 08:23:32;;;;;;;2.10;1.38;;;;;;;19.83;34.98;102991.63;4995847;28;96861;-83
2024/01/08 08:25:58;;;;;;;2.00;0.93;;;;;;;19.83;35.21;102988.09;4972994;28;97114;-83
2024/01/08 08:28:23;;;;;;;2.03;1.33;;;;;;;19.82;35.17;102995.16;4973330;28;100794;-80
2024/01/08 08:30:49;;;;;;;2.45;0.93;;;;;;;19.81;35.43;102997.78;5006033;27;97946;-80
2024/01/08 08:33:14;;;;;;;2.22;1.02;;;;;;;19.82;35.18;103000.47;4984384;28;96907;-80
2024/01/08 08:35:40;;;;;;;2.88;1.50;;;;;;;19.81;35.27;102996.00;4989128;28;96882;-80
2024/01/08 08:38:05;;;;;;;2.53;1.50;;;;;;;19.81;35.07;103006.59;4982406;28;99196;-80
2024/01/08 08:40:30;;;;;;;2.92;1.40;;;;;;;19.81;35.05;103011.91;4987993;28;126136;-80
2024/01/08 08:42:56;;;;;;;2.40;1.05;;;;;;;19.80;35.06;103004.81;4972310;28;116051;-80
2024/01/08 08:45:21;;;;;;;3.22;2.05;;;;;;;19.80;35.15;103010.13;4989472;28;97509;-80
2024/01/08 08:47:46;;;;;;;2.72;1.40;;;;;;;19.79;35.41;103018.97;4986092;28;97513;-80
2024/01/08 08:50:12;;;;;;;3.13;1.20;;;;;;;19.80;35.29;103011.88;4992749;28;96732;-80
2024/01/08 08:52:39;;;;;;;2.42;1.30;;;;;;;19.80;34.88;103017.19;4991539;28;96801;-81
2024/01/08 08:55:05;;;;;;;2.10;1.10;;;;;;;19.80;35.35;103018.06;4983459;28;96951;-81
2024/01/08 08:57:30;;;;;;;1.83;0.90;;;;;;;19.79;35.23;103016.31;4985087;28;97543;-80
2024/01/08 08:59:55;;;;;;;2.40;1.13;;;;;;;19.80;35.23;103023.34;4981179;28;97554;-80
2024/01/08 09:02:22;;;;;;;3.85;1.10;;;;;;;19.78;35.23;103020.69;5007846;28;96917;-81
2024/01/08 09:04:49;;;;;;;2.10;1.55;;;;;;;19.79;35.00;103005.72;4992226;28;97400;-80
2024/01/08 09:07:14;;;;;;;2.67;1.60;;;;;;;19.79;34.88;103016.31;4989965;28;99436;-80
2024/01/08 09:09:40;;;;;;;3.15;1.02;;;;;;;19.79;35.08;103016.31;4991100;28;98788;-80
2024/01/08 09:12:06;;;;;;;1.95;1.05;;;;;;;19.78;35.05;103014.53;5009549;28;96995;-80
2024/01/08 09:14:31;;;;;;;2.30;1.40;;;;;;;19.78;34.98;103019.81;4993337;28;96844;-80
2024/01/08 09:16:57;;;;;;;2.15;1.40;;;;;;;19.77;35.22;103016.28;4976060;28;115907;-81
2024/01/08 09:19:23;;;;;;;2.92;1.33;;;;;;;19.78;35.14;103027.75;5023473;27;97328;-80
2024/01/08 09:21:48;;;;;;;3.08;1.73;;;;;;;19.78;35.03;103027.75;5013526;28;96815;-80
2024/01/08 09:24:14;;;;;;;2.63;1.20;;;;;;;19.78;35.05;103036.59;4990085;28;118078;-80
2024/01/08 09:26:41;;;;;;;1.92;1.00;;;;;;;19.77;35.32;103033.94;5006758;28;121759;-80
2024/01/08 09:29:08;;;;;;;1.98;1.30;;;;;;;19.78;35.33;103025.13;4986929;28;98642;-80
2024/01/08 09:31:34;;;;;;;3.40;1.05;;;;;;;19.77;35.25;103023.34;4999217;28;96818;-81
2024/01/08 09:33:59;;;;;;;2.20;1.40;;;;;;;19.77;35.22;103037.47;4978780;28;96723;-80
2024/01/08 09:36:24;;;;;;;3.40;1.27;;;;;;;19.77;35.07;103039.25;5004760;28;118959;-80
2024/01/08 09:38:50;;;;;;;1.98;1.15;;;;;;;19.77;35.19;103044.53;5005043;27;120540;-80
2024/01/08 09:41:15;;;;;;;2.63;1.15;;;;;;;19.78;34.89;103049.81;4978225;28;97839;-80
2024/01/08 09:43:45;;;;;;;2.13;1.40;;;;;;;19.76;34.97;103040.09;4988442;28;114504;-80
2024/01/08 09:46:15;;;;;;;1.52;1.30;;;;;;;19.77;35.10;103049.84;4968244;28;99247;-80
2024/01/08 09:48:40;;;;;;;2.08;1.60;;;;;;;19.76;35.25;103053.34;4990795;28;97330;-80
2024/01/08 09:51:07;;;;;;;2.25;1.55;;;;;;;19.76;34.92;103058.63;4991054;28;96896;-81
2024/01/08 09:53:33;;;;;;;1.88;1.02;;;;;;;19.77;35.07;103049.84;4976290;28;96779;-80
2024/01/08 09:55:58;;;;;;;2.00;1.02;;;;;;;19.76;34.78;103058.63;4977356;28;102000;-80
2024/01/08 09:58:25;;;;;;;1.95;0.82;;;;;;;19.77;35.03;103049.84;4985811;28;97301;-80
2024/01/08 10:00:51;;;;;;;1.92;1.00;;;;;;;19.76;34.90;103042.75;4976135;28;96652;-80
2024/01/08 10:03:16;;;;;;;2.70;1.63;;;;;;;19.75;35.07;103047.16;4975633;28;98125;-80
2024/01/08 10:05:42;;;;;;;2.78;1.30;;;;;;;19.77;35.12;103047.19;4976361;28;114204;-80
2024/01/08 10:08:07;;;;;;;2.35;1.50;;;;;;;19.75;34.87;103038.31;4990933;28;98163;-80
2024/01/08 10:10:33;;;;;;;2.60;1.35;;;;;;;19.75;35.24;103044.53;4993782;28;111935;-82
2024/01/08 10:12:59;;;;;;;2.60;1.13;;;;;;;19.75;34.97;103043.59;4986164;28;96902;-83
2024/01/08 10:15:25;;;;;;;2.00;1.02;;;;;;;19.77;35.09;103039.25;4987666;28;98878;-83
2024/01/08 10:17:51;;;;;;;2.15;1.17;;;;;;;19.77;35.14;103041.88;4986223;28;96902;-82
2024/01/08 10:20:17;;;;;;;1.60;0.90;;;;;;;19.77;34.80;103032.19;5015213;27;97309;-82
2024/01/08 10:22:47;;;;;;;2.15;1.10;;;;;;;19.77;34.70;103028.66;4973802;28;97237;-82
2024/01/08 10:25:21;;;;;;;1.90;0.73;;;;;;;19.77;35.06;103024.22;4982159;28;98019;-83
2024/01/08 10:27:46;;;;;;;2.40;1.42;;;;;;;19.77;35.00;103039.25;4984992;28;97726;-83
2024/01/08 10:30:12;;;;;;;2.17;1.23;;;;;;;19.77;34.63;103029.53;4971012;28;96966;-82
2024/01/08 10:32:38;;;;;;;2.30;1.23;;;;;;;19.77;34.93;103026.00;5017116;27;99360;-80
2024/01/08 10:35:04;;;;;;;1.77;1.00;;;;;;;19.77;34.96;103029.53;5007847;28;98015;-79
2024/01/08 10:37:30;;;;;;;4.53;1.67;;;;;;;19.77;35.06;103029.53;4981619;28;96773;-80
2024/01/08 10:39:56;;;;;;;3.45;1.90;;;;;;;19.76;34.92;103037.47;4961453;28;96960;-79
2024/01/08 10:42:22;;;;;;;3.88;1.70;;;;;;;19.77;34.59;103023.34;4973561;28;96881;-79
2024/01/08 10:44:47;;;;;;;1.73;1.13;;;;;;;19.77;34.76;103028.66;4983002;28;97126;-79
2024/01/08 10:47:19;;;;;;;1.65;1.20;;;;;;;19.75;34.80;103023.34;4990266;28;97264;-79
2024/01/08 10:49:54;;;;;;;2.25;1.13;;;;;;;19.76;34.74;103027.75;5016047;28;96852;-79
2024/01/08 10:52:28;;;;;;;1.83;1.00;;;;;;;19.75;34.72;103019.78;4980465;28;98176;-80
2024/01/08 10:54:58;;;;;;;2.00;1.02;;;;;;;19.76;34.72;103021.56;4977715;28;99051;-80
2024/01/08 10:57:50;;;;;;;2.30;1.42;;;;;;;19.76;34.73;103021.56;4976275;28;97566;-80
2024/01/08 11:00:17;;;;;;;1.98;1.40;;;;;;;19.74;34.66;103021.53;4978839;28;98439;-80
2024/01/08 11:02:44;;;;;;;2.80;1.80;;;;;;;19.75;34.91;103017.13;4991430;28;98768;-80
2024/01/08 11:05:10;;;;;;;2.08;1.10;;;;;;;19.77;34.65;103011.00;4961088;28;98991;-81
2024/01/08 11:07:38;;;;;;;3.00;1.13;;;;;;;19.77;34.62;103012.75;4980315;28;100635;-81
2024/01/08 11:10:05;;;;;;;3.03;1.08;;;;;;;19.76;34.86;103011.84;4991956;28;96925;-81
2024/01/08 11:12:30;;;;;;;1.80;1.13;;;;;;;19.78;34.64;103007.44;4978614;28;97580;-80
2024/01/08 11:15:01;;;;;;;2.55;1.70;;;;;;;19.77;34.72;103007.47;4976162;28;97581;-81
2024/01/08 11:17:27;;;;;;;3.63;1.50;;;;;;;19.76;34.71;103000.38;4963512;28;97266;-81